Etusivu
METAR-TAF:

METAR-TAF

Lentoasemat :

Grant County International Airport

Moses Lake, Washington, Yhdysvallat

Leveyspiiri: 47-11-35N, Pituuspiiri: 119-18-48W, korkeus merenpinnasta: 361 m

Tämänhetkinen sää

Tämä raportti tehtiin 38 minuuttia sitten, kello 13.52 UTC
Tuuli 3 kn koillisesta
Lämpötila 17°C
Kosteus 59%
Ilmanpaine 1018 hPa
Näkyvyys: 16.1 km
selkeää

METAR: KMWH 041352Z 04003KT 10SM CLR 17/09 A3006 RMK AO2 SLP172 T01670094

Aika: 07:30 (14:30 UTC)

Sääennuste

Tämä raportti tehtiin 3 tuntia ja 9 minuuttia sitten, kello 11.21 UTC
Ennuste voimassa 04. päivästä klo 12 UTC - 05. päivään klo 12 UTC
Tuuli 3 kn lännestä/luoteesta
Näkyvyys: 10 km
selkeää
From 04. päivästä klo 1800 UTC
Tuuli 6 kn etelästä
Näkyvyys: 10 km
selkeää
From 05. päivästä klo 0700 UTC
Tuuli 5 kn pohjoisesta
Näkyvyys: 10 km
selkeää

TAF: KMWH 041121Z 0412/0512 30003KT P6SM SKC FM041800 18006KT P6SM SKC FM050700 01005KT P6SM SKC

Säähavainnot ja -ennusteet yli 4000 lentoasemalta (METAR- ja TAF-raportit).

Käytössä olevat sääasemat on merkitty karttaan keltaisilla ja punaisilla pisteillä.

Aseta hiiri pisteen päälle nähdäksesi sääaseman nimen.

Klikkaa sitten nähdäksesi säähavainnot ja -ennusteet.

Kartan vaihtaminen: klikkaa mustalla rastilla varustettuja vihreitä pisteitä, niin voit zoomata sisään; viivalla varustettua vihreää pistettä, niin voit zoomata ulos tai vihreitä nuolia, niin pääset viereisille kartoille.


METAR-TAF: